Página principal
METAR-TAF:

METAR-TAF

Aeroportos :

Aeroporto Internacional de Dubai

Dubai, Emirados Árabes Unidos

latitude: 25-15-10N, longitude: 055-21-52E, altura: 8 m

Observação actual do tempo

O boletim foi feito há 24 minutos, às 14:00 UTC
Vento 9 kt de nor-noroeste
Temperatura 36°C
Humidade 57%
Pressão 997 hPa
Visibilidade: 8000 m

METAR: OMDB 201400Z 33009KT 8000 NSC 36/26 Q0997 NOSIG

Hora: 18:24 (14:24 UTC)

Previsão

O boletim foi feito há 3 horas e 30 minutos, às 10:54 UTC
Previsão válida de 20 às 12 UTC a 21 às 18 UTC
Vento 10 kt de nor-noroeste
Visibilidade: 8000 m
Tornando-se
de 20 às 19 UTC a 20 às 21 UTC
Vento 5 kt de este
Tornando-se
de 21 às 07 UTC a 21 às 09 UTC
Vento 14 kt de nor-noroeste
Tornando-se
de 21 às 16 UTC a 21 às 18 UTC
Vento 5 kt de nordeste

TAF: OMDB 201054Z 2012/2118 33010KT 8000 NSC BECMG 2019/2021 10005KT BECMG 2107/2109 34014KT BECMG 2116/2118 05005KT

Observações e previsões do tempo de mais de 4000 aeroportos (mensagens METAR e TAF).

As estações disponíveis são os pontos amarelos e vermelhos sobre o mapa.

Mova o rato sobre o mapa para ver o nome da estação.

Depois clique no ponto para visualizar as observações e previsões meteorológicas.

Para alterar o mapa : clique nos botões verdes com uma cruz preta para aumentar o zoom; no botão verde com uma pitada de zoom; ou nas setas verdes para mapas adjacentes.


METAR-TAF: